NJ59 weather

Ekdahl Airport
Freehold, New Jersey, United States

Public forecast

Using degrees Fahrenheit for public forecast. Weather courtesy of forecast.io.

METAR (pilot weather report)

Closest report is Monmouth Executive Airport, 7.1 nm (13.1 km) E. Retrieved 2019/04/19 15:36 UTC (18 minutes ago):

KBLM 191536Z AUTO 19020G27KT 10SM SCT029 OVC037 23/16 A2982 RMK AO2 PK WND 18027/1536

TAF (pilot weather forecast)

Closest forecast is Mc Guire Air Force Base, 17.5 nm (32.5 km) SW. Retrieved 2019/04/19 10:09 UTC (6 hours ago):

TAF KWRI 191000Z 1910/2016 22012KT 9999 FEW200 QNH2974INS TEMPO 1910/1918 22015G25KT BECMG 1917/1918 20025G35KT 8000 -SHRA SCT030 510003 QNH2970INS TEMPO 1921/1924 20025G40KT 3200 -TSRA OVC015CB BECMG 2001/2002 18010G15KT 9000 -SHRA BKN010 OVC250 QNH2965INS TEMPO 2007/2009 18015G25KT 6000 -TSRA OVC009CB BECMG 2009/2010 16010G20KT 6000 -SHRA OVC007 QNH2967INS TX23/1919Z TN18/2010Z